Airfield :
LOGIN :

Register | Disclaimer

   EN    FR    IT 

 










Legend :    VFR   Marginal VFR   IFR   Intensive IFR   Very Intensive IFR
Visi :
Ceiling :
>= 8 km
>= 3000ft
5 to 8 km
1000 to 3000 ft
1500m to 5 km
500 to 1000 ft
800 to 1500m
200 to 500 ft
< 800m
< 200 ft
Symbols :   Thunderstorms  Fog  Heavy snow  Heavy precipitations  Wind > 20 kt
SIGMETs :     Misc.  Thunderstorms  Icing  Turbulence  Mountain Waves  Volcanic Ashes






- Airport Elevation : 191 ft
- IATA code : RNB


ESDF - Ronneby

CURRENT METAR :
  • 270550Z 19008KT 6000 -SHRA OVC005 04/04 Q1010

EXPIRED METARs :
  • 270520Z 20011KT 9999 -RA OVC007 04/03 Q1010
  • 270420Z AUTO 20008KT 170V230 9999 OVC008/// 04/03 Q1010
  • 270350Z AUTO 20009KT 9999 OVC008/// 04/03 Q1011
  • 270320Z AUTO 19008KT 160V220 9999 OVC008/// 04/03 Q1011
  • 270250Z AUTO 20008KT 9999 OVC009/// 04/03 Q1011

TAF TAF ESDF
Valid from the 27 at 06:00 until the 27 at 15:00 UTC


270545Z 2706/2715 19011KT 9999 OVC008
PROB40 2706/2715 2000 BR BKN003
BECMG 2711/2714 8000 RA BKN012 RMK MIL



MET'MAP, your aeronautical weather chart ! - Copyright ORBIFLY December 2007 - Disclaimer

ORBIFLY MET'MAP TEAM :

Programming & Development : Alexandra Zaïnal
Concept & original design : Baudouin d'Aumeries
Assistance for programming : Marc-Olivier Méhu
Technical & hardware support : Manuel Goepfert

Contact : metmap@orbifly.com




SOURCES & CREDITS :

   NOAA